Sal, Cape Verde
Current Conditions -  °F | °C
As of 8:00 PM on Sunday 23 Nov 2014 (Local Time) from GVAC Reporting Station
Scattered Clouds Scattered Clouds  
Wind Chill: 73°   Ceiling: Unl
Heat Index: 73°   Visibility: 6mi
Dew Point: 63°   Wind: 13mph
Humidity: 69%   Direction: 50°NE
Pressure: 30.03"   Gusts: NA
Location:  16.72°N, 22.93°W
Report Text: GVAC 232100Z 05011KT 9999 SCT014 23/17 Q1017 NOSIG
Loading
Personal Weather Stations






























Interactive Weather Map New forecast layout! Learn more

10-Day Weather Forecast

Advertisements
Track Severe Weather on mobile